createdAt,value
2018-12-17T00:00:33.159Z,33.17
2018-12-17T00:03:01.712Z,39.33
2018-12-17T00:05:30.617Z,28.97
2018-12-17T00:07:59.253Z,44.23
2018-12-17T00:10:27.735Z,41.33
2018-12-17T00:12:56.195Z,54.00
2018-12-17T00:15:24.654Z,34.73
2018-12-17T00:17:53.116Z,37.83
2018-12-17T00:20:21.604Z,33.20
2018-12-17T00:22:50.221Z,38.83
2018-12-17T00:25:18.688Z,65.90
2018-12-17T00:27:47.203Z,36.67
2018-12-17T00:30:15.823Z,42.57
2018-12-17T00:32:44.316Z,40.37
2018-12-17T00:35:12.805Z,40.93
2018-12-17T00:37:41.301Z,39.77
2018-12-17T00:40:10.210Z,37.27
2018-12-17T00:42:38.707Z,41.93
2018-12-17T00:45:07.471Z,45.10
2018-12-17T00:47:35.957Z,40.27
2018-12-17T00:50:05.471Z,39.47
2018-12-17T00:52:33.995Z,39.40
2018-12-17T00:55:02.459Z,34.27
2018-12-17T00:57:30.956Z,36.63
2018-12-17T00:59:59.462Z,32.20
2018-12-17T01:02:27.968Z,35.80
2018-12-17T01:04:56.466Z,38.20
2018-12-17T01:07:31.646Z,63.80
2018-12-17T01:10:00.183Z,36.13
2018-12-17T01:12:28.732Z,32.23
2018-12-17T01:14:57.312Z,37.83
2018-12-17T01:17:25.853Z,37.40
2018-12-17T01:19:54.442Z,39.57
2018-12-17T01:22:26.280Z,34.43
2018-12-17T01:24:55.320Z,41.97
2018-12-17T01:27:24.333Z,52.13
2018-12-17T01:29:54.092Z,64.60
2018-12-17T01:35:06.369Z,53.97
2018-12-17T01:37:40.936Z,37.67
2018-12-17T01:40:13.424Z,55.83
2018-12-17T01:42:42.008Z,56.20
2018-12-17T01:45:10.605Z,59.80
2018-12-17T01:47:40.172Z,50.73
2018-12-17T01:50:11.241Z,61.07
2018-12-17T01:52:42.123Z,67.93
2018-12-17T01:55:10.901Z,50.70
2018-12-17T01:57:42.390Z,55.13
2018-12-17T02:00:11.787Z,54.70
2018-12-17T02:02:45.022Z,60.70
2018-12-17T02:05:19.212Z,36.43
2018-12-17T02:07:53.209Z,43.27
2018-12-17T02:10:23.130Z,36.13
2018-12-17T02:17:10.079Z,50.97
2018-12-17T02:19:49.731Z,52.07
2018-12-17T02:22:19.614Z,37.70
2018-12-17T02:24:50.252Z,34.80
2018-12-17T02:27:20.965Z,29.77
2018-12-17T02:29:52.027Z,39.00
2018-12-17T02:32:25.823Z,34.43
2018-12-17T02:35:01.270Z,44.33
2018-12-17T02:37:32.728Z,53.97
2018-12-17T02:40:02.024Z,46.07
2018-12-17T02:42:32.650Z,40.47
2018-12-17T02:45:08.502Z,28.63
2018-12-17T02:47:37.921Z,31.57
2018-12-17T02:50:07.484Z,39.97
2018-12-17T02:52:38.532Z,45.07
2018-12-17T02:55:08.646Z,34.57
2018-12-17T02:57:40.199Z,35.83
2018-12-17T03:00:11.024Z,29.23
2018-12-17T03:02:42.665Z,32.90
2018-12-17T03:05:13.943Z,34.47
2018-12-17T03:07:43.240Z,28.27
2018-12-17T03:10:14.215Z,29.03
2018-12-17T03:12:43.051Z,27.73
2018-12-17T03:15:13.470Z,22.33
2018-12-17T03:17:43.425Z,28.37
2018-12-17T03:20:14.456Z,29.90
2018-12-17T03:22:44.790Z,32.37
2018-12-17T03:25:14.362Z,29.37
2018-12-17T03:27:44.301Z,27.67
2018-12-17T03:30:14.960Z,28.30
2018-12-17T03:32:45.515Z,26.80
2018-12-17T03:35:14.566Z,32.27
2018-12-17T03:37:45.472Z,33.13
2018-12-17T03:40:16.388Z,40.93
2018-12-17T03:42:50.793Z,24.50
2018-12-17T03:49:37.383Z,24.17
2018-12-17T03:55:14.754Z,23.73
2018-12-17T03:57:53.173Z,24.27
2018-12-17T04:00:25.578Z,25.30
2018-12-17T04:03:02.859Z,21.97
2018-12-17T04:05:36.569Z,26.67
2018-12-17T04:08:49.709Z,24.40
2018-12-17T04:11:24.010Z,25.53
2018-12-17T04:13:58.265Z,24.67
2018-12-17T04:16:30.549Z,27.80
2018-12-17T04:19:02.869Z,27.03
2018-12-17T04:21:36.472Z,21.53
2018-12-17T04:24:11.649Z,22.13
2018-12-17T04:26:46.240Z,21.97
2018-12-17T04:29:17.023Z,21.97
2018-12-17T04:32:07.970Z,28.43
2018-12-17T04:38:12.034Z,22.17
2018-12-17T04:42:04.936Z,18.80
2018-12-17T04:44:56.431Z,19.37
2018-12-17T04:52:38.161Z,20.07
2018-12-17T04:55:10.435Z,22.70
2018-12-17T04:57:42.581Z,18.80
2018-12-17T05:00:25.224Z,23.53
2018-12-17T05:03:20.667Z,22.57
2018-12-17T05:05:53.489Z,19.23
2018-12-17T05:08:32.787Z,22.40
2018-12-17T05:11:16.341Z,22.10
2018-12-17T05:14:07.025Z,23.43
2018-12-17T05:17:04.829Z,19.30
2018-12-17T05:19:49.495Z,26.20
2018-12-17T05:22:24.703Z,20.20
2018-12-17T05:24:59.919Z,24.87
2018-12-17T05:27:49.026Z,21.83
2018-12-17T05:36:56.161Z,21.80
2018-12-17T05:43:01.017Z,21.83
2018-12-17T05:48:23.063Z,26.60
2018-12-17T05:50:53.204Z,20.33
2018-12-17T05:53:26.988Z,29.77
2018-12-17T05:55:57.817Z,25.93
2018-12-17T05:58:31.886Z,24.23
2018-12-17T06:14:38.029Z,24.67
2018-12-17T06:17:08.754Z,20.60
2018-12-17T06:19:37.446Z,16.03
2018-12-17T06:22:07.652Z,19.83
2018-12-17T06:24:36.383Z,17.50
2018-12-17T06:27:06.883Z,12.83
2018-12-17T06:29:35.775Z,16.93
2018-12-17T06:32:05.811Z,16.57
2018-12-17T06:34:35.240Z,18.67
2018-12-17T06:37:05.856Z,18.27
2018-12-17T06:39:34.562Z,21.97
2018-12-17T06:42:03.861Z,20.40
2018-12-17T06:44:33.079Z,26.53
2018-12-17T06:47:01.769Z,16.33
2018-12-17T06:49:30.937Z,23.63
2018-12-17T06:52:01.871Z,17.77
2018-12-17T06:54:31.250Z,23.83
2018-12-17T06:57:00.847Z,21.07
2018-12-17T06:59:30.068Z,26.30
2018-12-17T07:02:00.177Z,21.00
2018-12-17T07:04:29.007Z,24.03
2018-12-17T07:06:57.715Z,22.30
2018-12-17T07:09:27.016Z,18.37
2018-12-17T07:11:55.708Z,23.10
2018-12-17T07:14:25.208Z,24.07
2018-12-17T07:16:54.000Z,20.60
2018-12-17T07:19:22.703Z,18.80
2018-12-17T07:21:52.978Z,20.97
2018-12-17T07:24:21.865Z,22.77
2018-12-17T07:26:51.001Z,18.23
2018-12-17T07:29:19.614Z,20.10
2018-12-17T07:31:50.786Z,18.60
2018-12-17T07:34:19.471Z,16.77
2018-12-17T07:36:48.240Z,19.63
2018-12-17T07:39:18.625Z,20.37
2018-12-17T07:41:47.331Z,16.30
2018-12-17T07:44:17.104Z,16.00
2018-12-17T07:46:46.392Z,18.67
2018-12-17T07:49:16.649Z,15.97
2018-12-17T07:51:45.408Z,23.40
2018-12-17T07:54:16.199Z,22.57
2018-12-17T07:56:45.909Z,19.20
2018-12-17T07:59:14.691Z,21.70
2018-12-17T08:01:44.946Z,26.17
2018-12-17T08:04:14.612Z,15.13
2018-12-17T08:06:43.976Z,16.13
2018-12-17T08:09:13.361Z,18.07
2018-12-17T08:11:44.404Z,15.03
2018-12-17T08:14:13.227Z,18.60
2018-12-17T08:16:42.600Z,14.47
2018-12-17T08:19:12.696Z,16.77
2018-12-17T08:21:42.423Z,17.07
2018-12-17T08:24:11.760Z,20.53
2018-12-17T08:26:40.489Z,16.27
2018-12-17T08:29:09.776Z,12.00
2018-12-17T08:31:39.244Z,20.17
2018-12-17T08:34:09.421Z,16.17
2018-12-17T08:36:39.753Z,14.87
2018-12-17T08:39:09.525Z,18.80
2018-12-17T08:41:41.100Z,15.13
2018-12-17T08:44:10.781Z,16.53
2018-12-17T08:46:41.352Z,15.83
2018-12-17T08:49:11.153Z,14.50
2018-12-17T08:51:39.861Z,16.20
2018-12-17T08:54:08.545Z,16.90
2018-12-17T08:56:40.078Z,16.47
2018-12-17T08:59:09.379Z,17.23
2018-12-17T09:01:38.407Z,15.90
2018-12-17T09:04:08.448Z,13.87
2018-12-17T09:06:38.037Z,15.47
2018-12-17T09:09:08.677Z,13.67
2018-12-17T09:11:38.030Z,11.30
2018-12-17T09:14:09.900Z,11.10
2018-12-17T09:16:40.060Z,9.67
2018-12-17T09:19:09.429Z,14.83
2018-12-17T09:21:38.829Z,11.50
2018-12-17T09:24:07.571Z,10.43
2018-12-17T09:26:36.409Z,18.37
2018-12-17T09:29:07.973Z,12.77
2018-12-17T09:31:37.025Z,12.67
2018-12-17T09:34:06.702Z,9.83
2018-12-17T09:36:37.262Z,9.87
2018-12-17T09:39:09.065Z,12.10
2018-12-17T09:41:38.062Z,11.27
2018-12-17T09:44:08.425Z,10.30
2018-12-17T09:46:37.799Z,12.80
2018-12-17T09:49:07.176Z,13.13
2018-12-17T09:51:36.653Z,17.97
2018-12-17T09:54:07.412Z,16.80
2018-12-17T09:56:36.476Z,13.70
2018-12-17T09:59:07.361Z,11.50
2018-12-17T10:01:36.327Z,13.90
2018-12-17T10:04:08.168Z,10.80
2018-12-17T10:06:36.977Z,12.87
2018-12-17T10:09:08.436Z,10.70
2018-12-17T10:11:37.463Z,11.83
2018-12-17T10:14:06.696Z,11.47
2018-12-17T10:16:36.087Z,10.83
2018-12-17T10:19:05.269Z,10.53
2018-12-17T10:21:36.044Z,18.63
2018-12-17T10:24:06.815Z,15.53
2018-12-17T10:26:37.783Z,17.03
2018-12-17T10:29:08.609Z,16.67
2018-12-17T10:31:39.002Z,14.60
2018-12-17T10:34:09.014Z,12.33
2018-12-17T10:36:43.844Z,19.40
2018-12-17T10:39:22.252Z,15.73
2018-12-17T10:44:45.895Z,14.23
2018-12-17T10:47:14.316Z,13.67
2018-12-17T10:49:43.749Z,16.17
2018-12-17T10:52:12.713Z,19.83
2018-12-17T10:54:42.305Z,16.43
2018-12-17T10:57:11.036Z,17.67
2018-12-17T10:59:39.639Z,21.00
2018-12-17T11:02:14.265Z,14.40
2018-12-17T11:04:48.751Z,18.07
2018-12-17T11:07:17.539Z,19.70
2018-12-17T11:09:46.170Z,26.83
2018-12-17T11:12:15.284Z,16.63
2018-12-17T11:14:44.580Z,29.70
2018-12-17T11:17:13.122Z,17.67
2018-12-17T11:19:42.338Z,19.50
2018-12-17T11:22:11.134Z,18.53
2018-12-17T11:24:40.278Z,23.07
2018-12-17T11:27:09.652Z,24.80
2018-12-17T11:29:39.157Z,23.97
2018-12-17T11:32:11.581Z,21.43
2018-12-17T11:34:39.022Z,27.37
2018-12-17T11:37:07.755Z,24.63
2018-12-17T11:39:36.351Z,23.53
2018-12-17T11:42:05.067Z,29.80
2018-12-17T11:44:34.797Z,25.33
2018-12-17T11:47:04.368Z,31.80
2018-12-17T11:49:33.633Z,23.83
2018-12-17T11:52:02.574Z,30.43
2018-12-17T11:54:32.136Z,28.17
2018-12-17T11:57:44.415Z,24.40
2018-12-17T12:00:13.011Z,30.77
2018-12-17T12:02:42.396Z,30.80
2018-12-17T12:05:10.979Z,30.70
2018-12-17T12:07:40.484Z,27.30
2018-12-17T12:10:09.660Z,29.37
2018-12-17T12:12:38.134Z,31.57
2018-12-17T12:15:07.857Z,33.67
2018-12-17T12:17:36.312Z,34.47
2018-12-17T12:20:05.064Z,32.90
2018-12-17T12:22:33.546Z,31.20
2018-12-17T12:25:02.007Z,34.47
2018-12-17T12:27:31.654Z,32.67
2018-12-17T12:30:01.772Z,35.67
2018-12-17T12:32:31.117Z,38.60
2018-12-17T12:34:59.629Z,26.97
2018-12-17T12:37:28.137Z,28.93
2018-12-17T12:39:57.490Z,34.07
2018-12-17T12:42:26.870Z,31.73
2018-12-17T12:44:56.208Z,40.23
2018-12-17T12:47:25.067Z,34.13
2018-12-17T12:49:53.567Z,29.43
2018-12-17T12:52:22.999Z,32.37
2018-12-17T12:54:51.976Z,32.47
2018-12-17T12:57:20.463Z,33.97
2018-12-17T12:59:49.097Z,34.70
2018-12-17T13:02:18.548Z,31.40
2018-12-17T13:04:47.034Z,32.77
2018-12-17T13:07:15.748Z,30.90
2018-12-17T13:09:44.441Z,37.00
2018-12-17T13:12:13.690Z,34.10
2018-12-17T13:14:42.300Z,37.27
2018-12-17T13:17:16.140Z,41.60
2018-12-17T13:19:44.657Z,40.97
2018-12-17T13:22:13.560Z,37.83
2018-12-17T13:24:42.220Z,43.57
2018-12-17T13:27:10.705Z,39.23
2018-12-17T13:29:39.220Z,38.17
2018-12-17T13:32:07.725Z,35.00
2018-12-17T13:34:36.993Z,33.83
2018-12-17T13:37:05.488Z,45.03
2018-12-17T13:39:34.605Z,40.03
2018-12-17T13:42:03.215Z,44.93
2018-12-17T13:44:32.049Z,44.13
2018-12-17T13:47:01.684Z,47.03
2018-12-17T13:49:30.173Z,43.03
2018-12-17T13:52:04.060Z,43.27
2018-12-17T13:54:32.617Z,47.00
2018-12-17T13:57:01.107Z,43.83
2018-12-17T13:59:30.674Z,36.07
2018-12-17T14:01:59.159Z,45.30
2018-12-17T14:04:27.655Z,51.03
2018-12-17T14:06:56.206Z,42.03
2018-12-17T14:09:26.917Z,42.53
2018-12-17T14:11:55.972Z,45.03
2018-12-17T14:14:24.763Z,42.33
2018-12-17T14:16:58.776Z,39.40
2018-12-17T14:19:27.246Z,46.73
2018-12-17T14:21:59.579Z,45.93
2018-12-17T14:24:28.419Z,35.03
2018-12-17T14:26:57.864Z,42.57
2018-12-17T14:29:27.147Z,37.07
2018-12-17T14:31:56.256Z,39.80
2018-12-17T14:34:24.825Z,38.73
2018-12-17T14:36:54.122Z,31.30
2018-12-17T14:39:22.832Z,38.93
2018-12-17T14:41:52.254Z,33.47
2018-12-17T14:44:35.984Z,31.10
2018-12-17T14:47:04.656Z,28.77
2018-12-17T14:49:34.105Z,31.93
2018-12-17T14:52:02.636Z,30.27
2018-12-17T14:54:36.199Z,36.30
2018-12-17T14:57:05.157Z,26.37
2018-12-17T14:59:34.014Z,32.43
2018-12-17T15:02:03.485Z,29.67
2018-12-17T15:04:32.899Z,28.57
2018-12-17T15:07:01.771Z,22.57
2018-12-17T15:09:30.371Z,25.77
2018-12-17T15:11:59.500Z,25.90
2018-12-17T15:14:29.020Z,26.73
2018-12-17T15:16:57.692Z,24.93
2018-12-17T15:19:26.666Z,26.37
2018-12-17T15:21:55.890Z,29.67
2018-12-17T15:24:24.807Z,29.37
2018-12-17T15:26:53.391Z,28.90
2018-12-17T15:29:22.257Z,26.13
2018-12-17T15:31:50.958Z,27.47
2018-12-17T15:34:19.499Z,26.23
2018-12-17T15:36:49.773Z,25.73
2018-12-17T15:39:18.941Z,27.67
2018-12-17T15:41:47.729Z,26.40
2018-12-17T15:44:16.853Z,23.90
2018-12-17T15:46:46.101Z,26.93
2018-12-17T15:49:14.763Z,23.10
2018-12-17T15:51:43.472Z,24.20
2018-12-17T15:54:12.148Z,25.87
2018-12-17T15:56:40.750Z,28.60
2018-12-17T15:59:10.287Z,22.93
2018-12-17T16:01:38.809Z,25.37
2018-12-17T16:04:07.489Z,28.50
2018-12-17T16:06:36.067Z,24.07
2018-12-17T16:09:07.992Z,27.17
2018-12-17T16:11:36.533Z,28.70
2018-12-17T16:14:05.168Z,30.90
2018-12-17T16:16:35.789Z,28.83
2018-12-17T16:19:04.411Z,29.60
2018-12-17T16:21:32.945Z,29.93
2018-12-17T16:24:01.501Z,29.07
